P/v San Francisco — WDA3425 — position and weather

sailwx.info

Track history (hours):
 
Tides and Currents Weather Stations Pressure Air Temp Water Temp Dewpoint Dewpoint Depression Visibility Wind Speed Wind Dir Waves Ship Positions

P/v San Francisco

Owner: San Francisco Bar Pilots Benevolent and Protective, SAN FRANCISCO, CA. More information available from US FCC via Universal Licensing System and Coast Guard Vessel Documentation Center.

Last reported at 2017-Dec-15 21:00 UTC. Time now 2017-Dec-15 21:20 UTC.
Position N 37°46' W 122°42'.

Length 33 m.

Type: Pilot. MMSI: 366798310.

Date/timePositionNaut miles runAvg speedWind from/ knotsBaromVisibWave heightAir tempDewpointWater temp
2017-Dec-15 21:00N 37°46' W 122°42'1 2.2
2017-Dec-15 20:29N 37°46' W 122°43'2 2.9
2017-Dec-15 19:56N 37°46' W 122°42'1 2.7
2017-Dec-15 19:30N 37°45' W 122°40'1 2.7
2017-Dec-15 19:01N 37°45' W 122°38'1 1.8
2017-Dec-15 18:29N 37°45' W 122°40'1 1.6
2017-Dec-15 18:00N 37°46' W 122°40'2 4.5
2017-Dec-15 17:30N 37°46' W 122°37'613.0
2017-Dec-15 17:01N 37°49' W 122°30'4 8.6
2017-Dec-15 16:31N 37°49' W 122°24'  
2017-Dec-09 18:16N 37°48' W 122°24'1 4.8
2017-Dec-09 18:00N 37°49' W 122°25'611.6
2017-Dec-09 17:31N 37°48' W 122°32'5 9.5
2017-Dec-09 17:00N 37°46' W 122°38'4 7.0
2017-Dec-09 16:30N 37°44' W 122°42'1 1.2
2017-Dec-09 16:00N 37°44' W 122°42'3 6.3
2017-Dec-09 15:30N 37°47' W 122°40'1 1.2
2017-Dec-09 15:00N 37°47' W 122°41'1 1.1
2017-Dec-09 14:30N 37°46' W 122°40'1 1.9
2017-Dec-09 13:59N 37°46' W 122°42'1 1.4
2017-Dec-09 13:22N 37°46' W 122°43'1 3.5
2017-Dec-09 13:00N 37°47' W 122°41'3 5.4
2017-Dec-09 12:30N 37°45' W 122°39'2 3.6
2017-Dec-09 12:00N 37°46' W 122°40'1 2.8
2017-Dec-09 11:30N 37°45' W 122°40'0 0.3
2017-Dec-09 11:00N 37°45' W 122°40'2 4.0
2017-Dec-09 10:30N 37°47' W 122°41'1 2.9
2017-Dec-09 10:00N 37°46' W 122°40'0 0.9
2017-Dec-09 09:30N 37°46' W 122°40'1 2.7
2017-Dec-09 09:00N 37°45' W 122°41'0 0.3
2017-Dec-09 08:22N 37°45' W 122°41'1 3.2
2017-Dec-09 08:01N 37°45' W 122°40'1 1.2
2017-Dec-09 07:31N 37°45' W 122°40'0 0.6
2017-Dec-09 06:59N 37°45' W 122°41'1 2.8
2017-Dec-09 06:31N 37°45' W 122°39'0 0.6
2017-Dec-09 06:00N 37°45' W 122°39'1 1.7
2017-Dec-09 05:31N 37°46' W 122°40'1 1.7
2017-Dec-09 05:00N 37°46' W 122°41'0 0.7
2017-Dec-09 04:30N 37°46' W 122°41'1 2.9
2017-Dec-09 04:00N 37°45' W 122°40'1 1.2
2017-Dec-09 03:30N 37°45' W 122°40'0 0.9
2017-Dec-09 03:00N 37°45' W 122°40'1 2.1
2017-Dec-09 02:29N 37°46' W 122°40'0 0.9
2017-Dec-09 01:59N 37°46' W 122°40'1 1.6
2017-Dec-09 01:30N 37°47' W 122°40'1 1.3
2017-Dec-09 01:00N 37°47' W 122°41'1 1.3
2017-Dec-09 00:25N 37°46' W 122°42'1 2.3
2017-Dec-09 00:00N 37°46' W 122°41'2 1.6
2017-Dec-08 22:30N 37°44' W 122°42'1 1.9
2017-Dec-08 22:00N 37°45' W 122°41'1 2.9
2017-Dec-08 21:30N 37°46' W 122°40'1 2.2
2017-Dec-08 21:00N 37°45' W 122°40'2 3.0
2017-Dec-08 20:17N 37°44' W 122°42'2 6.7
2017-Dec-08 20:00N 37°45' W 122°41'1 1.9
2017-Dec-08 19:30N 37°46' W 122°40'1 2.6
2017-Dec-08 19:01N 37°46' W 122°39'1 1.3
2017-Dec-08 18:30N 37°46' W 122°40'1 1.3
2017-Dec-08 18:00N 37°46' W 122°40'2 1.9
2017-Dec-08 16:50N 37°44' W 122°42'2 5.2
2017-Dec-08 16:31N 37°45' W 122°40'0 0.6
2017-Dec-08 16:00N 37°45' W 122°40'1 1.4
2017-Dec-08 15:25N 37°44' W 122°41'1 1.5
2017-Dec-08 14:55N 37°44' W 122°40'2 3.6
2017-Dec-08 14:25N 37°46' W 122°41'1 0.8
2017-Dec-08 13:47N 37°46' W 122°40'1 2.8
2017-Dec-08 13:30N 37°46' W 122°40'2 4.0
2017-Dec-08 12:57N 37°44' W 122°41'0 0.9
2017-Dec-08 12:29N 37°44' W 122°41'0 0.5
2017-Dec-08 11:36N 37°44' W 122°41'1 2.2
2017-Dec-08 11:16N 37°45' W 122°41'2 6.9
2017-Dec-08 11:00N 37°45' W 122°43'1 0.6
2017-Dec-08 09:32N 37°44' W 122°42'0 0.7
2017-Dec-08 09:27N 37°44' W 122°42'1 0.9
2017-Dec-08 08:51N 37°44' W 122°42'0 0.4
2017-Dec-08 08:20N 37°44' W 122°42'0 0.7
2017-Dec-08 08:00N 37°44' W 122°41'0 0.6
2017-Dec-08 07:28N 37°44' W 122°42'1 2.7
2017-Dec-08 06:59N 37°45' W 122°40'1 0.9
2017-Dec-08 06:08N 37°45' W 122°41'0 1.5
2017-Dec-08 05:57N 37°46' W 122°41'1 2.4
2017-Dec-08 05:30N 37°45' W 122°41'0 0.3
2017-Dec-08 05:00N 37°45' W 122°41'0 0.4
2017-Dec-08 04:17N 37°45' W 122°41'1 1.8
2017-Dec-08 03:59N 37°45' W 122°41'1 2.9
2017-Dec-08 03:30N 37°46' W 122°40'1 1.6
2017-Dec-08 03:00N 37°46' W 122°41'1 1.0
2017-Dec-08 02:27N 37°47' W 122°41'1 2.7
2017-Dec-08 02:00N 37°46' W 122°41'0 0.8
2017-Dec-08 01:28N 37°46' W 122°41'0 0.5
2017-Dec-08 01:00N 37°46' W 122°41'0 0.1
2017-Dec-08 00:21N 37°46' W 122°41'1 3.1
2017-Dec-08 00:00N 37°46' W 122°39'0 0.8
2017-Dec-07 23:28N 37°46' W 122°39'1 2.1
2017-Dec-07 23:00N 37°46' W 122°40'1 0.4
2017-Dec-07 20:43N 37°45' W 122°40'1 3.3
2017-Dec-07 20:26N 37°46' W 122°39'0 1.1
2017-Dec-07 20:00N 37°46' W 122°39'1 2.0
2017-Dec-07 19:30N 37°45' W 122°40'1 2.1
2017-Dec-07 18:57N 37°45' W 122°42'0 0.6
2017-Dec-07 18:19N 37°44' W 122°41'1 1.0
2017-Dec-07 17:33N 37°44' W 122°42'1 2.4
2017-Dec-07 17:02N 37°44' W 122°41'0 3.0
2017-Dec-07 17:00N 37°44' W 122°40'1 1.5
2017-Dec-07 16:30N 37°45' W 122°40'1 1.8
2017-Dec-07 16:00N 37°45' W 122°41'1 1.6
2017-Dec-07 15:30N 37°44' W 122°42'1 2.1
2017-Dec-07 14:59N 37°45' W 122°41'1 2.3
2017-Dec-07 14:23N 37°46' W 122°39'0 1.1
2017-Dec-07 14:00N 37°47' W 122°39'1 1.2
2017-Dec-07 13:31N 37°46' W 122°40'1 1.1
2017-Dec-07 12:58N 37°46' W 122°40'0 0.9
2017-Dec-07 12:30N 37°46' W 122°40'1 1.5
2017-Dec-07 12:00N 37°47' W 122°41'1 1.1
2017-Dec-07 11:31N 37°46' W 122°40'0 0.5
2017-Dec-07 11:00N 37°46' W 122°40'0 0.6
2017-Dec-07 10:30N 37°47' W 122°40'1 1.2
2017-Dec-07 10:00N 37°47' W 122°40'1 1.9
2017-Dec-07 09:31N 37°47' W 122°41'1 1.4
2017-Dec-07 09:01N 37°48' W 122°41'2 3.3
2017-Dec-07 08:30N 37°47' W 122°40'1 2.3
2017-Dec-07 08:00N 37°46' W 122°39'1 1.8
2017-Dec-07 07:30N 37°46' W 122°40'1 1.6
2017-Dec-07 07:00N 37°47' W 122°41'1 2.1
2017-Dec-07 06:30N 37°46' W 122°40'1 2.3
2017-Dec-07 05:59N 37°45' W 122°39'0 0.3
2017-Dec-07 05:21N 37°45' W 122°39'1 1.7
2017-Dec-07 05:00N 37°46' W 122°39'1 1.4
2017-Dec-07 04:19N 37°46' W 122°40'1 3.7
2017-Dec-07 04:00N 37°46' W 122°39'4 8.1
2017-Dec-07 03:30N 37°47' W 122°34'2 4.2
2017-Dec-07 03:00N 37°48' W 122°31'510.7
2017-Dec-07 02:30N 37°46' W 122°38'2 4.4
2017-Dec-07 02:00N 37°46' W 122°40'1 1.8
2017-Dec-07 01:30N 37°46' W 122°40'1 1.1
2017-Dec-07 01:00N 37°45' W 122°39'2 3.6
2017-Dec-07 00:23N 37°44' W 122°42'1 1.3
2017-Dec-06 23:59N 37°45' W 122°42'1 0.9
2017-Dec-06 22:56N 37°44' W 122°41'1 3.4
2017-Dec-06 22:30N 37°45' W 122°39'1 1.3
2017-Dec-06 21:47N 37°46' W 122°41'1 2.9
2017-Dec-06 21:30N 37°46' W 122°42'1 1.6
2017-Dec-06 20:41N 37°45' W 122°40'  
Track history (hours):
 
Tides and Currents Weather Stations Pressure Air Temp Water Temp Dewpoint Dewpoint Depression Visibility Wind Speed Wind Dir Waves Ship Positions

P/v San Francisco

Owner: San Francisco Bar Pilots Benevolent and Protective, SAN FRANCISCO, CA. More information available from US FCC via Universal Licensing System and Coast Guard Vessel Documentation Center.

Last reported at 2017-Dec-15 21:00 UTC. Time now 2017-Dec-15 21:20 UTC.
Position N 37°46' W 122°42'.

Length 33 m.

Type: Pilot. MMSI: 366798310.

Date/timePositionNaut miles runAvg speedWind from/ knotsBaromVisibWave heightAir tempDewpointWater temp
2017-Dec-15 21:00N 37°46' W 122°42'1 2.2
2017-Dec-15 20:29N 37°46' W 122°43'2 2.9
2017-Dec-15 19:56N 37°46' W 122°42'1 2.7
2017-Dec-15 19:30N 37°45' W 122°40'1 2.7
2017-Dec-15 19:01N 37°45' W 122°38'1 1.8
2017-Dec-15 18:29N 37°45' W 122°40'1 1.6
2017-Dec-15 18:00N 37°46' W 122°40'2 4.5
2017-Dec-15 17:30N 37°46' W 122°37'613.0
2017-Dec-15 17:01N 37°49' W 122°30'4 8.6
2017-Dec-15 16:31N 37°49' W 122°24'  
2017-Dec-09 18:16N 37°48' W 122°24'1 4.8
2017-Dec-09 18:00N 37°49' W 122°25'611.6
2017-Dec-09 17:31N 37°48' W 122°32'5 9.5
2017-Dec-09 17:00N 37°46' W 122°38'4 7.0
2017-Dec-09 16:30N 37°44' W 122°42'1 1.2
2017-Dec-09 16:00N 37°44' W 122°42'3 6.3
2017-Dec-09 15:30N 37°47' W 122°40'1 1.2
2017-Dec-09 15:00N 37°47' W 122°41'1 1.1
2017-Dec-09 14:30N 37°46' W 122°40'1 1.9
2017-Dec-09 13:59N 37°46' W 122°42'1 1.4
2017-Dec-09 13:22N 37°46' W 122°43'1 3.5
2017-Dec-09 13:00N 37°47' W 122°41'3 5.4
2017-Dec-09 12:30N 37°45' W 122°39'2 3.6
2017-Dec-09 12:00N 37°46' W 122°40'1 2.8
2017-Dec-09 11:30N 37°45' W 122°40'0 0.3
2017-Dec-09 11:00N 37°45' W 122°40'2 4.0
2017-Dec-09 10:30N 37°47' W 122°41'1 2.9
2017-Dec-09 10:00N 37°46' W 122°40'0 0.9
2017-Dec-09 09:30N 37°46' W 122°40'1 2.7
2017-Dec-09 09:00N 37°45' W 122°41'0 0.3
2017-Dec-09 08:22N 37°45' W 122°41'1 3.2
2017-Dec-09 08:01N 37°45' W 122°40'1 1.2
2017-Dec-09 07:31N 37°45' W 122°40'0 0.6
2017-Dec-09 06:59N 37°45' W 122°41'1 2.8
2017-Dec-09 06:31N 37°45' W 122°39'0 0.6
2017-Dec-09 06:00N 37°45' W 122°39'1 1.7
2017-Dec-09 05:31N 37°46' W 122°40'1 1.7
2017-Dec-09 05:00N 37°46' W 122°41'0 0.7
2017-Dec-09 04:30N 37°46' W 122°41'1 2.9
2017-Dec-09 04:00N 37°45' W 122°40'1 1.2
2017-Dec-09 03:30N 37°45' W 122°40'0 0.9
2017-Dec-09 03:00N 37°45' W 122°40'1 2.1
2017-Dec-09 02:29N 37°46' W 122°40'0 0.9
2017-Dec-09 01:59N 37°46' W 122°40'1 1.6
2017-Dec-09 01:30N 37°47' W 122°40'1 1.3
2017-Dec-09 01:00N 37°47' W 122°41'1 1.3
2017-Dec-09 00:25N 37°46' W 122°42'1 2.3
2017-Dec-09 00:00N 37°46' W 122°41'2 1.6
2017-Dec-08 22:30N 37°44' W 122°42'1 1.9
2017-Dec-08 22:00N 37°45' W 122°41'1 2.9
2017-Dec-08 21:30N 37°46' W 122°40'1 2.2
2017-Dec-08 21:00N 37°45' W 122°40'2 3.0
2017-Dec-08 20:17N 37°44' W 122°42'2 6.7
2017-Dec-08 20:00N 37°45' W 122°41'1 1.9
2017-Dec-08 19:30N 37°46' W 122°40'1 2.6
2017-Dec-08 19:01N 37°46' W 122°39'1 1.3
2017-Dec-08 18:30N 37°46' W 122°40'1 1.3
2017-Dec-08 18:00N 37°46' W 122°40'2 1.9
2017-Dec-08 16:50N 37°44' W 122°42'2 5.2
2017-Dec-08 16:31N 37°45' W 122°40'0 0.6
2017-Dec-08 16:00N 37°45' W 122°40'1 1.4
2017-Dec-08 15:25N 37°44' W 122°41'1 1.5
2017-Dec-08 14:55N 37°44' W 122°40'2 3.6
2017-Dec-08 14:25N 37°46' W 122°41'1 0.8
2017-Dec-08 13:47N 37°46' W 122°40'1 2.8
2017-Dec-08 13:30N 37°46' W 122°40'2 4.0
2017-Dec-08 12:57N 37°44' W 122°41'0 0.9
2017-Dec-08 12:29N 37°44' W 122°41'0 0.5
2017-Dec-08 11:36N 37°44' W 122°41'1 2.2
2017-Dec-08 11:16N 37°45' W 122°41'2 6.9
2017-Dec-08 11:00N 37°45' W 122°43'1 0.6
2017-Dec-08 09:32N 37°44' W 122°42'0 0.7
2017-Dec-08 09:27N 37°44' W 122°42'1 0.9
2017-Dec-08 08:51N 37°44' W 122°42'0 0.4
2017-Dec-08 08:20N 37°44' W 122°42'0 0.7
2017-Dec-08 08:00N 37°44' W 122°41'0 0.6
2017-Dec-08 07:28N 37°44' W 122°42'1 2.7
2017-Dec-08 06:59N 37°45' W 122°40'1 0.9
2017-Dec-08 06:08N 37°45' W 122°41'0 1.5
2017-Dec-08 05:57N 37°46' W 122°41'1 2.4
2017-Dec-08 05:30N 37°45' W 122°41'0 0.3
2017-Dec-08 05:00N 37°45' W 122°41'0 0.4
2017-Dec-08 04:17N 37°45' W 122°41'1 1.8
2017-Dec-08 03:59N 37°45' W 122°41'1 2.9
2017-Dec-08 03:30N 37°46' W 122°40'1 1.6
2017-Dec-08 03:00N 37°46' W 122°41'1 1.0
2017-Dec-08 02:27N 37°47' W 122°41'1 2.7
2017-Dec-08 02:00N 37°46' W 122°41'0 0.8
2017-Dec-08 01:28N 37°46' W 122°41'0 0.5
2017-Dec-08 01:00N 37°46' W 122°41'0 0.1
2017-Dec-08 00:21N 37°46' W 122°41'1 3.1
2017-Dec-08 00:00N 37°46' W 122°39'0 0.8
2017-Dec-07 23:28N 37°46' W 122°39'1 2.1
2017-Dec-07 23:00N 37°46' W 122°40'1 0.4
2017-Dec-07 20:43N 37°45' W 122°40'1 3.3
2017-Dec-07 20:26N 37°46' W 122°39'0 1.1
2017-Dec-07 20:00N 37°46' W 122°39'1 2.0
2017-Dec-07 19:30N 37°45' W 122°40'1 2.1
2017-Dec-07 18:57N 37°45' W 122°42'0 0.6
2017-Dec-07 18:19N 37°44' W 122°41'1 1.0
2017-Dec-07 17:33N 37°44' W 122°42'1 2.4
2017-Dec-07 17:02N 37°44' W 122°41'0 3.0
2017-Dec-07 17:00N 37°44' W 122°40'1 1.5
2017-Dec-07 16:30N 37°45' W 122°40'1 1.8
2017-Dec-07 16:00N 37°45' W 122°41'1 1.6
2017-Dec-07 15:30N 37°44' W 122°42'1 2.1
2017-Dec-07 14:59N 37°45' W 122°41'1 2.3
2017-Dec-07 14:23N 37°46' W 122°39'0 1.1
2017-Dec-07 14:00N 37°47' W 122°39'1 1.2
2017-Dec-07 13:31N 37°46' W 122°40'1 1.1
2017-Dec-07 12:58N 37°46' W 122°40'0 0.9
2017-Dec-07 12:30N 37°46' W 122°40'1 1.5
2017-Dec-07 12:00N 37°47' W 122°41'1 1.1
2017-Dec-07 11:31N 37°46' W 122°40'0 0.5
2017-Dec-07 11:00N 37°46' W 122°40'0 0.6
2017-Dec-07 10:30N 37°47' W 122°40'1 1.2
2017-Dec-07 10:00N 37°47' W 122°40'1 1.9
2017-Dec-07 09:31N 37°47' W 122°41'1 1.4
2017-Dec-07 09:01N 37°48' W 122°41'2 3.3
2017-Dec-07 08:30N 37°47' W 122°40'1 2.3
2017-Dec-07 08:00N 37°46' W 122°39'1 1.8
2017-Dec-07 07:30N 37°46' W 122°40'1 1.6
2017-Dec-07 07:00N 37°47' W 122°41'1 2.1
2017-Dec-07 06:30N 37°46' W 122°40'1 2.3
2017-Dec-07 05:59N 37°45' W 122°39'0 0.3
2017-Dec-07 05:21N 37°45' W 122°39'1 1.7
2017-Dec-07 05:00N 37°46' W 122°39'1 1.4
2017-Dec-07 04:19N 37°46' W 122°40'1 3.7
2017-Dec-07 04:00N 37°46' W 122°39'4 8.1
2017-Dec-07 03:30N 37°47' W 122°34'2 4.2
2017-Dec-07 03:00N 37°48' W 122°31'510.7
2017-Dec-07 02:30N 37°46' W 122°38'2 4.4
2017-Dec-07 02:00N 37°46' W 122°40'1 1.8
2017-Dec-07 01:30N 37°46' W 122°40'1 1.1
2017-Dec-07 01:00N 37°45' W 122°39'2 3.6
2017-Dec-07 00:23N 37°44' W 122°42'1 1.3
2017-Dec-06 23:59N 37°45' W 122°42'1 0.9
2017-Dec-06 22:56N 37°44' W 122°41'1 3.4
2017-Dec-06 22:30N 37°45' W 122°39'1 1.3
2017-Dec-06 21:47N 37°46' W 122°41'1 2.9
2017-Dec-06 21:30N 37°46' W 122°42'1 1.6
2017-Dec-06 20:41N 37°45' W 122°40'  

Dump ship's entire track history